Time;durP1;ratioP1;P1;durP2;ratioP2;P2;SDS_P1;SDS_P2;PMS_P1;PMS_P2;Temp;Humidity;BMP_temperature;BMP_pressure;BME280_temperature;BME280_humidity;BME280_pressure;Samples;Min_cycle;Max_cycle;Signal;HPM_P1;HPM_P2
2023/03/11 00:00:18;;;;;;;9.43;2.27;;;3.00;99.90;;;;;;5132506;27;20406;-68
2023/03/11 00:02:45;;;;;;;4.37;1.07;;;3.10;99.90;;;;;;5132943;27;20418;-68
2023/03/11 00:05:25;;;;;;;11.53;1.97;;;3.10;99.90;;;;;;5119256;27;20454;-68
2023/03/11 00:07:51;;;;;;;3.63;1.50;;;3.10;99.90;;;;;;5113097;28;20410;-67
2023/03/11 00:10:24;;;;;;;1.90;1.00;;;3.10;99.90;;;;;;5113919;28;20873;-67
2023/03/11 00:12:50;;;;;;;2.07;1.20;;;3.10;99.90;;;;;;5113775;28;20800;-68
2023/03/11 00:15:15;;;;;;;3.27;2.00;;;3.10;99.90;;;;;;5113090;28;20407;-68
2023/03/11 00:17:41;;;;;;;3.63;1.83;;;3.10;99.90;;;;;;5116490;28;20492;-68
2023/03/11 00:20:12;;;;;;;5.33;1.70;;;3.10;99.90;;;;;;5132885;27;20213;-68
2023/03/11 00:22:38;;;;;;;3.17;1.57;;;3.10;99.90;;;;;;5132773;27;20184;-68
2023/03/11 00:25:04;;;;;;;7.60;1.50;;;3.10;99.90;;;;;;5131494;28;20394;-68
2023/03/11 00:27:29;;;;;;;4.27;1.57;;;3.10;99.90;;;;;;5114840;28;20194;-68
2023/03/11 00:29:55;;;;;;;2.57;1.70;;;3.10;99.90;;;;;;5112184;28;20172;-68
2023/03/11 00:32:20;;;;;;;3.67;1.57;;;3.20;99.90;;;;;;5112122;28;20690;-68
2023/03/11 00:34:46;;;;;;;4.07;1.57;;;3.20;99.90;;;;;;5118832;28;20192;-68
2023/03/11 00:37:11;;;;;;;2.87;1.43;;;3.20;99.90;;;;;;5112656;28;20753;-68
2023/03/11 00:39:37;;;;;;;3.60;1.47;;;3.20;99.90;;;;;;5114138;28;20248;-68
2023/03/11 00:42:03;;;;;;;9.03;1.40;;;3.20;99.90;;;;;;5113132;28;20192;-68
2023/03/11 00:44:28;;;;;;;2.73;1.30;;;3.10;99.90;;;;;;5114762;28;20194;-68
2023/03/11 00:46:54;;;;;;;3.33;1.90;;;3.10;99.90;;;;;;5132367;28;20164;-68
2023/03/11 00:49:19;;;;;;;6.00;1.87;;;3.00;99.90;;;;;;5132573;27;20244;-68
2023/03/11 00:51:45;;;;;;;4.00;2.20;;;2.90;99.90;;;;;;5132471;27;20180;-67
2023/03/11 00:54:10;;;;;;;5.27;1.60;;;2.80;99.90;;;;;;5125385;28;20242;-68
2023/03/11 00:56:36;;;;;;;1.57;1.30;;;2.80;99.90;;;;;;5132464;28;20870;-68
2023/03/11 00:59:01;;;;;;;13.60;2.63;;;2.80;99.90;;;;;;5132346;28;20168;-68
2023/03/11 01:01:27;;;;;;;3.87;1.70;;;2.90;99.90;;;;;;5132596;27;20180;-68
2023/03/11 01:03:52;;;;;;;3.47;1.70;;;2.90;99.90;;;;;;5122344;27;20172;-68
2023/03/11 01:06:18;;;;;;;9.13;2.13;;;2.90;99.90;;;;;;5140142;27;20168;-68
2023/03/11 01:08:43;;;;;;;9.30;1.70;;;2.90;99.90;;;;;;5154124;27;20237;-68
2023/03/11 01:11:09;;;;;;;8.30;1.87;;;2.90;99.90;;;;;;5154460;27;20191;-68
2023/03/11 01:13:35;;;;;;;5.30;1.63;;;3.00;99.90;;;;;;5131396;27;20209;-68
2023/03/11 01:16:00;;;;;;;6.30;2.10;;;3.00;99.90;;;;;;5115949;28;20157;-68
2023/03/11 01:18:27;;;;;;;3.07;1.33;;;3.00;99.90;;;;;;5117183;28;20493;-68
2023/03/11 01:20:53;;;;;;;9.07;1.67;;;3.00;99.90;;;;;;5121599;27;20283;-67
2023/03/11 01:23:20;;;;;;;8.30;2.10;;;3.00;99.90;;;;;;5136951;27;20449;-68
2023/03/11 01:25:45;;;;;;;1.40;1.30;;;3.10;99.90;;;;;;5135997;27;20884;-68
2023/03/11 01:28:11;;;;;;;5.00;1.60;;;3.10;99.90;;;;;;5135628;27;20402;-68
2023/03/11 01:30:39;;;;;;;6.03;1.30;;;3.20;99.90;;;;;;5127498;27;20196;-68
2023/03/11 01:33:05;;;;;;;1.20;1.10;;;3.20;99.90;;;;;;5134886;27;20215;-68
2023/03/11 01:35:32;;;;;;;1.70;1.27;;;3.20;99.90;;;;;;5135719;27;20466;-68
2023/03/11 01:37:58;;;;;;;1.23;0.90;;;3.20;99.90;;;;;;5136416;27;20764;-67
2023/03/11 01:40:27;;;;;;;3.20;1.33;;;3.20;99.90;;;;;;5136817;27;20514;-69
2023/03/11 01:42:53;;;;;;;7.60;1.30;;;3.20;99.90;;;;;;5135570;27;20402;-68
2023/03/11 01:45:46;;;;;;;1.00;0.90;;;3.10;99.90;;;;;;5136384;27;21025;-68
2023/03/11 01:48:11;;;;;;;2.07;1.30;;;3.10;99.90;;;;;;5117668;27;20196;-67
2023/03/11 01:50:44;;;;;;;3.47;2.50;;;3.10;99.90;;;;;;5116912;28;20417;-68
2023/03/11 01:53:12;;;;;;;1.43;1.20;;;3.10;99.90;;;;;;5116781;28;20257;-67
2023/03/11 01:55:37;;;;;;;3.03;0.90;;;3.00;99.90;;;;;;5123573;27;20412;-68
2023/03/11 01:58:06;;;;;;;3.23;1.03;;;2.80;99.90;;;;;;5133675;27;20405;-68
2023/03/11 02:00:33;;;;;;;2.50;1.53;;;2.80;99.90;;;;;;5135216;27;20164;-68
2023/03/11 02:03:05;;;;;;;2.10;1.07;;;2.70;99.90;;;;;;5135327;27;20429;-68
2023/03/11 02:05:32;;;;;;;2.70;1.40;;;2.60;99.90;;;;;;5126052;27;20932;-68
2023/03/11 02:07:58;;;;;;;2.60;1.70;;;2.50;99.90;;;;;;5114311;28;20405;-68
2023/03/11 02:10:24;;;;;;;1.60;1.07;;;2.40;99.90;;;;;;5114409;28;20391;-68
2023/03/11 02:12:50;;;;;;;2.20;1.00;;;2.30;99.90;;;;;;5114157;28;20420;-68
2023/03/11 02:15:16;;;;;;;10.63;1.70;;;2.20;99.90;;;;;;5127242;27;20778;-68
2023/03/11 02:17:42;;;;;;;1.83;1.13;;;2.10;99.90;;;;;;5143012;27;20484;-68
2023/03/11 02:20:29;;;;;;;1.30;0.90;;;2.00;99.90;;;;;;5156591;27;20213;-67
2023/03/11 02:22:56;;;;;;;4.90;1.20;;;2.00;99.90;;;;;;5157824;27;20805;-67
2023/03/11 02:25:51;;;;;;;3.50;1.00;;;2.00;99.90;;;;;;5153613;27;20938;-68
2023/03/11 02:28:19;;;;;;;5.73;1.23;;;2.00;99.90;;;;;;5136635;27;20488;-67
2023/03/11 02:30:45;;;;;;;2.60;1.10;;;2.00;99.90;;;;;;5137236;27;20819;-67
2023/03/11 02:33:12;;;;;;;1.47;1.17;;;2.00;99.90;;;;;;5133820;27;20532;-67
2023/03/11 02:35:38;;;;;;;0.87;0.67;;;2.00;99.90;;;;;;5116605;28;20395;-69
2023/03/11 02:38:03;;;;;;;1.17;0.90;;;2.00;99.90;;;;;;5113572;28;20391;-68
2023/03/11 02:40:42;;;;;;;1.93;1.17;;;2.00;99.90;;;;;;5112555;28;20658;-69
2023/03/11 02:43:14;;;;;;;5.60;1.73;;;1.90;99.90;;;;;;5115044;27;20643;-68
2023/03/11 02:45:42;;;;;;;1.27;1.17;;;1.90;99.90;;;;;;5113704;28;20413;-67
2023/03/11 02:48:10;;;;;;;1.93;0.90;;;1.90;99.90;;;;;;5113476;28;20413;-68
2023/03/11 02:50:36;;;;;;;5.83;1.20;;;1.90;99.90;;;;;;5113599;28;20422;-69
2023/03/11 02:53:03;;;;;;;3.40;1.30;;;1.80;99.90;;;;;;5113701;28;20754;-67
2023/03/11 02:55:29;;;;;;;2.93;1.10;;;1.80;99.90;;;;;;5113584;28;20524;-67
2023/03/11 02:57:55;;;;;;;5.70;1.50;;;1.80;99.90;;;;;;5114361;28;20399;-67
2023/03/11 03:00:20;;;;;;;9.50;1.27;;;1.80;99.90;;;;;;5124495;27;20169;-68
2023/03/11 03:02:50;;;;;;;2.13;1.80;;;1.70;99.90;;;;;;5134677;27;20159;-68
2023/03/11 03:05:19;;;;;;;3.57;0.93;;;1.70;99.90;;;;;;5119434;27;20437;-67
2023/03/11 03:07:45;;;;;;;3.77;0.90;;;1.70;99.90;;;;;;5113120;28;20412;-67
2023/03/11 03:10:11;;;;;;;3.57;1.33;;;1.60;99.90;;;;;;5121680;27;20410;-67
2023/03/11 03:12:36;;;;;;;9.90;1.73;;;1.60;99.90;;;;;;5113032;28;20461;-67
2023/03/11 03:15:02;;;;;;;2.60;0.80;;;1.60;99.90;;;;;;5113261;28;20280;-67
2023/03/11 03:17:28;;;;;;;1.27;0.80;;;1.60;99.90;;;;;;5113788;28;20164;-67
2023/03/11 03:19:53;;;;;;;0.90;0.80;;;1.50;99.90;;;;;;5118191;27;20430;-68
2023/03/11 03:22:19;;;;;;;3.60;0.97;;;1.50;99.90;;;;;;5114035;28;20188;-69
2023/03/11 03:24:45;;;;;;;4.67;1.20;;;1.50;99.90;;;;;;5127137;27;20252;-68
2023/03/11 03:27:10;;;;;;;3.90;1.10;;;1.40;99.90;;;;;;5136285;27;20730;-68
2023/03/11 03:29:36;;;;;;;1.57;1.00;;;1.40;99.90;;;;;;5143158;27;20238;-68
2023/03/11 03:32:01;;;;;;;2.70;1.17;;;1.40;99.90;;;;;;5154160;27;20187;-68
2023/03/11 03:34:27;;;;;;;2.00;1.00;;;1.30;99.90;;;;;;5153338;27;20549;-68
2023/03/11 03:36:52;;;;;;;4.17;1.10;;;1.30;99.90;;;;;;5153954;27;20166;-68
2023/03/11 03:39:18;;;;;;;2.17;0.90;;;1.30;99.90;;;;;;5145039;27;20175;-68
2023/03/11 03:41:44;;;;;;;1.60;1.33;;;1.30;99.90;;;;;;5133319;27;20200;-67
2023/03/11 03:44:10;;;;;;;1.50;0.87;;;1.20;99.90;;;;;;5133469;27;20424;-67
2023/03/11 03:46:37;;;;;;;5.37;1.30;;;1.10;99.90;;;;;;5133208;27;20168;-68
2023/03/11 03:49:02;;;;;;;5.80;1.10;;;1.10;99.90;;;;;;5112378;28;20168;-67
2023/03/11 03:51:28;;;;;;;1.80;1.43;;;1.00;99.90;;;;;;5112602;28;20426;-68
2023/03/11 03:53:53;;;;;;;10.87;1.40;;;1.00;99.90;;;;;;5112430;28;20196;-68
2023/03/11 03:56:19;;;;;;;6.00;1.37;;;0.90;99.90;;;;;;5118280;27;20173;-68
2023/03/11 03:58:44;;;;;;;2.90;1.17;;;0.90;99.90;;;;;;5132839;27;20564;-68
2023/03/11 04:01:12;;;;;;;1.10;1.00;;;0.80;99.90;;;;;;5132957;27;20211;-67
2023/03/11 04:03:38;;;;;;;4.83;1.57;;;0.80;99.90;;;;;;5132408;27;20744;-67
2023/03/11 04:06:24;;;;;;;1.80;1.57;;;0.80;99.90;;;;;;5113483;27;20442;-67
2023/03/11 04:08:51;;;;;;;7.40;2.00;;;0.70;99.90;;;;;;5112137;28;20405;-67
2023/03/11 04:11:16;;;;;;;1.10;0.80;;;0.70;99.90;;;;;;5112297;28;20434;-68
2023/03/11 04:13:43;;;;;;;1.93;1.73;;;0.80;99.90;;;;;;5112123;28;20455;-67
2023/03/11 04:16:16;;;;;;;7.80;1.57;;;0.80;99.90;;;;;;5122701;27;20205;-67
2023/03/11 04:18:41;;;;;;;0.90;0.63;;;0.90;99.90;;;;;;5131362;27;20440;-67
2023/03/11 04:21:07;;;;;;;3.27;1.20;;;1.00;99.90;;;;;;5132800;27;20457;-67
2023/03/11 04:23:33;;;;;;;1.20;0.87;;;1.10;99.90;;;;;;5131515;27;20172;-67
2023/03/11 04:25:59;;;;;;;7.03;1.77;;;1.10;99.90;;;;;;5114391;28;20180;-67
2023/03/11 04:28:24;;;;;;;2.40;1.47;;;1.20;99.90;;;;;;5111930;28;20171;-67
2023/03/11 04:30:50;;;;;;;2.33;1.37;;;1.20;99.90;;;;;;5112250;28;20599;-67
2023/03/11 04:33:15;;;;;;;1.70;1.50;;;1.20;99.90;;;;;;5114694;28;20551;-67
2023/03/11 04:35:41;;;;;;;11.40;1.57;;;1.30;99.90;;;;;;5137833;27;20696;-67
2023/03/11 04:38:06;;;;;;;2.03;1.33;;;1.30;99.90;;;;;;5153070;27;20628;-67
2023/03/11 04:40:32;;;;;;;3.03;1.63;;;1.30;99.90;;;;;;5153327;27;20171;-67
2023/03/11 04:42:57;;;;;;;1.67;1.20;;;1.30;99.90;;;;;;5153343;27;20186;-67
2023/03/11 04:45:23;;;;;;;1.83;1.33;;;1.20;99.90;;;;;;5154368;27;20173;-67
2023/03/11 04:47:52;;;;;;;2.20;1.00;;;1.20;99.90;;;;;;5157179;27;20209;-67
2023/03/11 04:50:18;;;;;;;4.13;2.00;;;1.10;99.90;;;;;;5157274;27;20166;-67
2023/03/11 04:52:44;;;;;;;8.13;2.70;;;1.00;99.90;;;;;;5126685;27;20536;-67
2023/03/11 04:55:10;;;;;;;3.67;1.97;;;1.00;99.90;;;;;;5115938;28;20456;-67
2023/03/11 04:57:36;;;;;;;3.77;1.90;;;0.90;99.90;;;;;;5115554;28;20398;-67
2023/03/11 05:00:07;;;;;;;4.40;1.70;;;0.80;99.90;;;;;;5115829;28;20407;-67
2023/03/11 05:02:32;;;;;;;3.00;1.20;;;0.80;99.90;;;;;;5115846;28;20223;-67
2023/03/11 05:04:58;;;;;;;1.87;1.20;;;0.80;99.90;;;;;;5115902;27;20470;-67
2023/03/11 05:07:23;;;;;;;4.00;1.50;;;0.80;99.90;;;;;;5115418;28;20251;-67
2023/03/11 05:09:49;;;;;;;3.27;1.93;;;0.90;99.90;;;;;;5115761;28;20647;-67
2023/03/11 05:12:14;;;;;;;6.60;2.20;;;0.90;99.90;;;;;;5116326;27;20192;-67
2023/03/11 05:14:40;;;;;;;3.63;1.67;;;0.90;99.90;;;;;;5136129;27;20196;-68
2023/03/11 05:17:06;;;;;;;1.93;1.10;;;1.00;99.90;;;;;;5135844;27;20175;-67
2023/03/11 05:19:35;;;;;;;4.67;1.60;;;1.10;99.90;;;;;;5136176;27;20160;-67
2023/03/11 05:22:02;;;;;;;2.20;1.57;;;1.10;99.90;;;;;;5123199;27;20942;-67
2023/03/11 05:24:27;;;;;;;4.00;1.70;;;1.20;99.90;;;;;;5132244;27;20417;-67
2023/03/11 05:26:54;;;;;;;1.90;1.43;;;1.30;99.90;;;;;;5135630;27;20404;-67
2023/03/11 05:29:20;;;;;;;1.70;1.40;;;1.30;99.90;;;;;;5135951;27;20409;-67
2023/03/11 05:31:45;;;;;;;4.07;1.70;;;1.30;99.90;;;;;;5135852;27;20430;-68
2023/03/11 05:34:11;;;;;;;1.43;1.07;;;1.40;99.90;;;;;;5135773;27;20472;-67
2023/03/11 05:36:37;;;;;;;10.13;1.53;;;1.50;99.90;;;;;;5135724;27;20459;-67
2023/03/11 05:39:03;;;;;;;3.03;2.00;;;1.60;99.90;;;;;;5134137;27;20787;-67
2023/03/11 05:41:28;;;;;;;3.60;1.93;;;1.60;99.90;;;;;;5146989;27;20191;-67
2023/03/11 05:43:54;;;;;;;1.40;1.30;;;1.70;99.90;;;;;;5135612;27;20239;-67
2023/03/11 05:46:19;;;;;;;2.23;1.40;;;1.80;99.90;;;;;;5135770;27;20244;-67
2023/03/11 05:48:45;;;;;;;3.10;1.40;;;1.80;99.90;;;;;;5135208;27;20174;-67
2023/03/11 05:51:11;;;;;;;2.60;1.60;;;1.90;99.90;;;;;;5135428;27;20266;-67
2023/03/11 05:53:37;;;;;;;2.43;1.50;;;1.90;99.90;;;;;;5122226;27;20454;-67
2023/03/11 05:56:04;;;;;;;2.50;1.40;;;1.90;99.90;;;;;;5115108;28;20726;-68
2023/03/11 05:58:31;;;;;;;4.40;1.73;;;2.00;99.90;;;;;;5112519;28;20494;-67
2023/03/11 06:00:58;;;;;;;7.03;2.40;;;2.00;99.90;;;;;;5114706;27;20522;-67
2023/03/11 06:03:23;;;;;;;6.43;2.90;;;2.00;99.90;;;;;;5114958;28;20904;-67
2023/03/11 06:05:49;;;;;;;6.80;3.20;;;2.10;99.90;;;;;;5133659;27;20413;-68
2023/03/11 06:08:16;;;;;;;9.73;3.70;;;2.10;99.90;;;;;;5134878;27;20561;-67
2023/03/11 06:10:42;;;;;;;4.70;2.53;;;2.10;99.90;;;;;;5115393;27;20430;-67
2023/03/11 06:13:08;;;;;;;6.27;2.50;;;2.10;99.90;;;;;;5114275;28;20909;-67
2023/03/11 06:15:35;;;;;;;2.97;1.77;;;2.20;99.90;;;;;;5114720;28;21049;-67
2023/03/11 06:18:01;;;;;;;3.50;2.43;;;2.20;99.90;;;;;;5117407;27;20903;-68
2023/03/11 06:20:27;;;;;;;5.03;2.43;;;2.30;99.90;;;;;;5114387;28;21215;-68
2023/03/11 06:22:53;;;;;;;6.40;2.10;;;2.40;99.90;;;;;;5113039;28;20438;-67
2023/03/11 06:25:18;;;;;;;6.53;1.93;;;2.50;99.90;;;;;;5114489;28;20164;-68
2023/03/11 06:27:52;;;;;;;3.70;1.63;;;2.50;99.90;;;;;;5131221;27;20197;-67
2023/03/11 06:30:18;;;;;;;5.87;1.90;;;2.60;99.90;;;;;;5112975;28;20609;-68
2023/03/11 06:32:47;;;;;;;3.57;1.90;;;2.60;99.90;;;;;;5114164;28;20418;-67
2023/03/11 06:35:13;;;;;;;2.90;1.80;;;2.70;99.90;;;;;;5125335;27;20460;-68
2023/03/11 06:37:39;;;;;;;5.07;2.17;;;2.80;99.90;;;;;;5134278;27;20402;-67
2023/03/11 06:40:06;;;;;;;5.00;1.90;;;2.90;99.90;;;;;;5133178;27;20434;-67
2023/03/11 06:42:32;;;;;;;6.50;1.30;;;3.00;99.90;;;;;;5134424;27;20184;-67
2023/03/11 06:44:58;;;;;;;1.73;1.63;;;3.10;99.90;;;;;;5112732;27;20422;-68
2023/03/11 06:47:23;;;;;;;1.37;1.10;;;3.30;99.90;;;;;;5113509;28;20226;-68
2023/03/11 06:49:50;;;;;;;4.50;1.30;;;3.40;99.90;;;;;;5119113;27;20172;-67
2023/03/11 06:52:16;;;;;;;3.17;1.53;;;3.50;99.90;;;;;;5150310;27;20187;-68
2023/03/11 06:54:42;;;;;;;7.73;2.57;;;3.50;99.90;;;;;;5154903;27;20443;-68
2023/03/11 06:57:08;;;;;;;2.60;1.77;;;3.60;99.90;;;;;;5153268;27;20163;-68
2023/03/11 06:59:34;;;;;;;1.67;1.50;;;3.60;99.90;;;;;;5153803;27;20915;-68
2023/03/11 07:02:01;;;;;;;1.80;1.70;;;3.60;99.90;;;;;;5119486;27;20431;-68
2023/03/11 07:04:26;;;;;;;1.97;1.20;;;3.60;99.90;;;;;;5120918;27;20402;-68
2023/03/11 07:06:52;;;;;;;5.30;2.00;;;3.60;99.90;;;;;;5133686;27;20815;-68
2023/03/11 07:09:18;;;;;;;1.90;1.40;;;3.70;99.90;;;;;;5132942;27;20174;-68
2023/03/11 07:11:43;;;;;;;3.23;2.47;;;3.80;99.90;;;;;;5133851;27;20180;-68
2023/03/11 07:14:09;;;;;;;5.10;1.90;;;4.00;99.90;;;;;;5132421;27;20548;-68
2023/03/11 07:16:37;;;;;;;4.80;1.77;;;4.20;99.90;;;;;;5133805;27;20638;-67
2023/03/11 07:19:02;;;;;;;4.00;1.57;;;4.40;99.90;;;;;;5133547;27;20165;-68
2023/03/11 07:21:30;;;;;;;4.50;1.77;;;4.60;99.90;;;;;;5133547;27;20915;-68
2023/03/11 07:23:59;;;;;;;4.73;2.03;;;4.70;99.90;;;;;;5133860;27;20167;-68
2023/03/11 07:26:25;;;;;;;1.97;1.57;;;4.90;99.90;;;;;;5133647;27;20798;-68
2023/03/11 07:28:52;;;;;;;2.60;2.00;;;5.10;99.90;;;;;;5133322;27;20485;-68
2023/03/11 07:31:27;;;;;;;6.20;1.87;;;5.30;99.90;;;;;;5111746;28;20866;-68
2023/03/11 07:33:53;;;;;;;4.50;1.43;;;5.50;99.90;;;;;;5112814;28;20449;-67
2023/03/11 07:36:21;;;;;;;4.37;2.10;;;5.70;99.90;;;;;;5112880;28;20398;-67
2023/03/11 07:38:47;;;;;;;8.40;2.37;;;5.80;99.90;;;;;;5112643;28;20406;-67
2023/03/11 07:41:14;;;;;;;4.53;2.00;;;6.00;99.90;;;;;;5112760;28;20418;-67
2023/03/11 07:43:41;;;;;;;4.13;2.13;;;6.40;99.90;;;;;;5112784;28;20398;-67
2023/03/11 07:46:10;;;;;;;4.30;3.90;;;7.00;99.90;;;;;;5115953;27;20788;-67
2023/03/11 07:48:38;;;;;;;3.53;2.87;;;8.00;99.90;;;;;;5132908;27;20401;-67
2023/03/11 07:51:13;;;;;;;11.03;4.67;;;9.50;99.90;;;;;;5131230;27;20483;-67
2023/03/11 07:53:39;;;;;;;4.40;2.03;;;11.30;99.90;;;;;;5133448;27;20967;-67
2023/03/11 07:56:06;;;;;;;2.50;1.63;;;13.00;99.90;;;;;;5125751;27;20420;-67
2023/03/11 07:58:32;;;;;;;2.37;1.90;;;14.60;94.80;;;;;;5132800;27;20394;-68
2023/03/11 08:01:09;;;;;;;2.50;2.30;;;16.00;81.50;;;;;;5133551;27;20461;-68
2023/03/11 08:03:36;;;;;;;2.53;2.23;;;17.30;67.50;;;;;;5141643;27;20408;-68
2023/03/11 08:06:03;;;;;;;3.87;2.23;;;18.60;60.20;;;;;;5112738;28;20410;-68
2023/03/11 08:08:28;;;;;;;3.97;2.20;;;19.50;54.40;;;;;;5110905;28;20976;-68
2023/03/11 08:10:54;;;;;;;12.10;6.00;;;19.90;51.70;;;;;;5112432;28;20563;-68
2023/03/11 08:13:20;;;;;;;4.60;3.33;;;20.50;49.50;;;;;;5117472;28;20207;-68
2023/03/11 08:15:45;;;;;;;2.70;1.93;;;21.50;48.00;;;;;;5132947;27;20168;-68
2023/03/11 08:18:11;;;;;;;4.97;2.47;;;22.60;45.90;;;;;;5132602;28;20396;-68
2023/03/11 08:20:37;;;;;;;5.50;3.80;;;23.70;45.50;;;;;;5134325;27;20268;-68
2023/03/11 08:23:03;;;;;;;4.20;1.70;;;24.60;42.60;;;;;;5135753;27;20748;-68
2023/03/11 08:25:29;;;;;;;3.07;2.70;;;25.30;40.80;;;;;;5137264;27;20400;-68
2023/03/11 08:27:54;;;;;;;4.90;2.50;;;26.20;38.80;;;;;;5135527;27;20164;-67
2023/03/11 08:30:21;;;;;;;5.00;1.97;;;27.40;37.40;;;;;;5129375;27;20237;-67
2023/03/11 08:32:48;;;;;;;5.73;2.70;;;28.60;36.50;;;;;;5123564;27;20161;-67
2023/03/11 08:35:14;;;;;;;2.73;2.13;;;29.50;34.30;;;;;;5116305;28;20442;-67
2023/03/11 08:37:39;;;;;;;2.47;2.10;;;30.40;33.10;;;;;;5116046;28;20402;-67
2023/03/11 08:40:05;;;;;;;4.80;2.27;;;31.10;31.30;;;;;;5116260;28;20183;-67
2023/03/11 08:42:31;;;;;;;3.10;1.90;;;31.80;29.50;;;;;;5116274;27;20268;-67
2023/03/11 08:44:56;;;;;;;3.83;1.90;;;31.80;26.50;;;;;;5116227;28;20398;-67
2023/03/11 08:47:22;;;;;;;3.70;2.07;;;32.40;27.60;;;;;;5115771;28;20662;-67
2023/03/11 08:49:47;;;;;;;2.50;2.30;;;33.00;27.20;;;;;;5124037;27;20253;-68
2023/03/11 08:52:13;;;;;;;3.20;1.90;;;33.70;27.30;;;;;;5136475;27;20263;-68
2023/03/11 08:54:38;;;;;;;2.33;1.77;;;34.10;26.10;;;;;;5136527;27;20827;-67
2023/03/11 08:57:04;;;;;;;3.37;2.33;;;34.60;26.50;;;;;;5136256;27;20160;-67
2023/03/11 08:59:30;;;;;;;2.37;2.03;;;35.40;25.70;;;;;;5136509;27;20248;-67
2023/03/11 09:01:56;;;;;;;3.50;2.17;;;35.90;25.40;;;;;;5136387;27;20189;-67
2023/03/11 09:04:21;;;;;;;5.53;2.00;;;36.50;25.10;;;;;;5128247;27;20421;-67
2023/03/11 09:06:50;;;;;;;4.30;2.27;;;36.90;24.40;;;;;;5115766;28;20173;-67
2023/03/11 09:09:18;;;;;;;3.73;2.17;;;37.30;24.40;;;;;;5132777;27;20231;-68
2023/03/11 09:11:43;;;;;;;3.17;2.07;;;37.70;23.60;;;;;;5143715;27;20562;-67
2023/03/11 09:14:09;;;;;;;4.63;3.10;;;38.10;23.70;;;;;;5141196;27;21239;-67
2023/03/11 09:16:34;;;;;;;2.47;1.80;;;38.60;23.10;;;;;;5128200;27;20180;-68
2023/03/11 09:19:02;;;;;;;3.77;3.20;;;38.60;22.50;;;;;;5127013;27;20254;-68
2023/03/11 09:21:28;;;;;;;2.90;2.17;;;38.80;22.60;;;;;;5136066;27;20279;-68
2023/03/11 09:23:54;;;;;;;3.20;2.30;;;39.10;22.60;;;;;;5136065;27;20425;-67
2023/03/11 09:26:20;;;;;;;2.97;2.40;;;39.30;22.20;;;;;;5134526;27;20658;-68
2023/03/11 09:28:47;;;;;;;2.80;1.63;;;39.50;21.80;;;;;;5135342;27;20690;-68
2023/03/11 09:31:14;;;;;;;2.03;1.57;;;39.30;20.90;;;;;;5135541;27;20984;-68
2023/03/11 09:33:41;;;;;;;2.90;1.37;;;39.60;21.00;;;;;;5135084;27;20938;-68
2023/03/11 09:36:07;;;;;;;2.03;1.20;;;39.70;20.50;;;;;;5135812;27;20402;-68
2023/03/11 09:38:33;;;;;;;2.27;1.37;;;39.40;20.00;;;;;;5135399;27;20412;-68
2023/03/11 09:41:16;;;;;;;2.60;1.30;;;39.40;20.10;;;;;;5135577;27;20508;-68
2023/03/11 09:43:51;;;;;;;5.70;1.13;;;39.60;20.20;;;;;;5135493;27;20247;-68
2023/03/11 09:46:26;;;;;;;2.43;1.40;;;39.70;20.80;;;;;;5135657;27;20371;-68
2023/03/11 09:48:58;;;;;;;1.93;1.17;;;40.00;21.10;;;;;;5122203;27;20496;-68
2023/03/11 09:51:31;;;;;;;3.03;1.43;;;40.30;20.90;;;;;;5114787;27;20429;-68
2023/03/11 09:54:04;;;;;;;4.70;1.77;;;39.70;20.60;;;;;;5114642;28;20507;-68
2023/03/11 09:56:33;;;;;;;1.40;1.20;;;39.60;20.30;;;;;;5114713;28;20891;-68
2023/03/11 09:59:06;;;;;;;2.30;2.10;;;40.40;20.00;;;;;;5123716;27;20398;-68
2023/03/11 10:01:33;;;;;;;2.43;1.83;;;40.90;19.60;;;;;;5114586;28;20427;-68
2023/03/11 10:04:17;;;;;;;1.77;1.43;;;41.40;19.80;;;;;;5114599;28;20434;-68
2023/03/11 10:06:47;;;;;;;5.27;1.20;;;40.70;18.60;;;;;;5114711;28;20413;-68
2023/03/11 10:09:45;;;;;;;2.70;1.50;;;38.00;18.20;;;;;;5114338;28;20394;-67
2023/03/11 10:12:32;;;;;;;1.83;1.10;;;34.80;18.70;;;;;;5114380;28;20440;-67
2023/03/11 10:15:14;;;;;;;2.03;1.30;;;31.20;19.10;;;;;;5114428;28;20446;-67
2023/03/11 10:18:02;;;;;;;1.30;1.10;;;28.30;20.40;;;;;;5121275;27;20418;-67
2023/03/11 10:20:42;;;;;;;3.57;1.10;;;26.20;21.50;;;;;;5114959;28;20387;-67
2023/03/11 10:23:31;;;;;;;2.13;1.83;;;26.70;23.30;;;;;;5133038;27;20400;-67
2023/03/11 10:26:12;;;;;;;1.77;1.10;;;29.00;23.70;;;;;;5137641;27;20923;-68
2023/03/11 10:28:50;;;;;;;1.93;0.90;;;31.10;22.60;;;;;;5134637;27;20400;-67
2023/03/11 10:31:35;;;;;;;2.70;1.10;;;33.50;21.70;;;;;;5134719;27;20405;-68
2023/03/11 10:34:21;;;;;;;5.53;1.73;;;34.80;20.80;;;;;;5134616;27;20441;-68
2023/03/11 10:37:02;;;;;;;1.27;1.17;;;34.60;19.90;;;;;;5134617;27;20965;-68
2023/03/11 10:39:30;;;;;;;2.40;1.10;;;35.70;20.50;;;;;;5134517;27;20891;-67
2023/03/11 10:42:00;;;;;;;1.57;1.13;;;35.40;19.70;;;;;;5134486;27;20436;-68
2023/03/11 10:44:36;;;;;;;1.20;1.07;;;34.10;19.10;;;;;;5134046;27;20401;-68
2023/03/11 10:47:02;;;;;;;1.63;1.30;;;33.30;19.60;;;;;;5121091;27;20463;-67
2023/03/11 10:49:28;;;;;;;1.20;0.93;;;33.10;20.10;;;;;;5113887;28;20407;-68
2023/03/11 10:51:55;;;;;;;1.50;1.10;;;32.30;19.60;;;;;;5113707;28;20271;-67
2023/03/11 10:54:31;;;;;;;5.10;4.30;;;31.70;20.40;;;;;;5114132;27;20506;-67
2023/03/11 10:57:00;;;;;;;2.87;2.00;;;31.30;20.50;;;;;;5134178;27;20397;-67
2023/03/11 10:59:29;;;;;;;1.80;1.10;;;30.30;20.50;;;;;;5134177;27;20398;-67
2023/03/11 11:01:55;;;;;;;1.73;1.20;;;29.60;21.00;;;;;;5132789;27;20444;-67
2023/03/11 11:04:38;;;;;;;1.60;1.20;;;29.90;21.30;;;;;;5127548;27;20928;-67
2023/03/11 11:07:34;;;;;;;2.63;1.20;;;29.90;21.20;;;;;;5113313;28;20390;-67
2023/03/11 11:10:22;;;;;;;4.70;1.17;;;29.00;19.60;;;;;;5100075;28;20418;-67
2023/03/11 11:12:54;;;;;;;1.50;1.00;;;28.40;21.10;;;;;;5114439;27;20441;-67
2023/03/11 11:15:22;;;;;;;1.77;1.00;;;27.80;21.90;;;;;;5111975;28;20455;-67
2023/03/11 11:17:48;;;;;;;2.17;1.07;;;26.90;22.20;;;;;;5113063;28;20399;-67
2023/03/11 11:20:18;;;;;;;2.97;1.30;;;25.90;22.60;;;;;;5113199;28;20448;-67
2023/03/11 11:23:03;;;;;;;6.13;1.30;;;25.20;23.20;;;;;;5113166;28;20180;-66
2023/03/11 11:25:39;;;;;;;1.60;0.97;;;24.50;23.00;;;;;;5113191;28;20841;-66
2023/03/11 11:28:19;;;;;;;1.20;0.80;;;23.70;23.70;;;;;;5112880;28;20440;-67
2023/03/11 11:31:17;;;;;;;1.20;1.00;;;22.60;22.70;;;;;;5113248;28;20423;-67
2023/03/11 11:33:52;;;;;;;1.87;0.83;;;21.80;24.60;;;;;;5117622;27;20433;-67
2023/03/11 11:36:23;;;;;;;4.27;1.20;;;20.90;25.20;;;;;;5144126;27;20484;-67
2023/03/11 11:38:51;;;;;;;1.40;1.00;;;20.40;26.30;;;;;;5133167;27;20473;-67
2023/03/11 11:41:19;;;;;;;2.13;0.90;;;19.90;26.70;;;;;;5133361;27;20428;-68
2023/03/11 11:43:53;;;;;;;3.70;1.73;;;19.20;25.00;;;;;;5119956;27;20789;-67
2023/03/11 11:46:36;;;;;;;1.33;1.00;;;19.10;26.60;;;;;;5113093;28;20757;-67
2023/03/11 11:49:17;;;;;;;1.10;1.00;;;18.70;25.60;;;;;;5111947;28;20457;-67
2023/03/11 11:51:52;;;;;;;3.93;0.97;;;18.90;26.40;;;;;;5120222;27;20512;-67
2023/03/11 11:54:52;;;;;;;2.10;1.10;;;18.90;26.20;;;;;;5112837;28;20438;-67
2023/03/11 11:57:20;;;;;;;2.57;1.30;;;18.60;26.00;;;;;;5059157;28;20769;-67
2023/03/11 11:59:46;;;;;;;1.83;1.20;;;18.70;27.90;;;;;;5112841;28;20409;-67
2023/03/11 12:02:15;;;;;;;4.43;1.57;;;18.60;28.40;;;;;;5113875;28;21155;-67
2023/03/11 12:05:16;;;;;;;3.40;1.10;;;18.60;28.40;;;;;;5122198;27;20932;-67
2023/03/11 12:08:01;;;;;;;2.73;2.03;;;19.50;28.70;;;;;;5086773;27;20456;-68
2023/03/11 12:10:40;;;;;;;2.00;1.10;;;23.00;29.10;;;;;;5122619;27;20417;-68
2023/03/11 12:13:18;;;;;;;1.20;1.10;;;24.90;25.10;;;;;;5112106;28;20418;-67
2023/03/11 12:15:55;;;;;;;1.93;0.93;;;24.00;22.70;;;;;;5112351;28;20416;-67
2023/03/11 12:18:34;;;;;;;2.63;1.13;;;23.20;23.10;;;;;;5117948;28;20435;-67
2023/03/11 12:21:05;;;;;;;3.43;1.60;;;23.00;24.80;;;;;;5112648;28;20442;-67
2023/03/11 12:24:01;;;;;;;1.20;1.00;;;22.40;24.80;;;;;;5112858;28;20403;-67
2023/03/11 12:26:34;;;;;;;3.30;1.10;;;22.00;25.60;;;;;;5114633;28;20390;-67
2023/03/11 12:29:12;;;;;;;2.10;1.70;;;21.10;25.90;;;;;;5134210;27;20390;-66
2023/03/11 12:31:39;;;;;;;1.50;1.20;;;20.10;26.60;;;;;;5134883;27;20410;-67
2023/03/11 12:34:10;;;;;;;4.27;3.30;;;19.10;27.00;;;;;;5133692;27;20437;-66
2023/03/11 12:36:43;;;;;;;4.50;1.00;;;18.30;28.40;;;;;;5114631;28;20403;-66
2023/03/11 12:39:38;;;;;;;2.70;1.27;;;17.80;28.90;;;;;;5133552;27;20410;-66
2023/03/11 12:42:09;;;;;;;1.50;1.20;;;17.40;29.30;;;;;;5114896;27;20425;-69
2023/03/11 12:44:36;;;;;;;1.97;1.10;;;17.30;29.60;;;;;;5132580;28;20410;-69
2023/03/11 12:47:11;;;;;;;2.70;1.27;;;17.40;29.80;;;;;;5132298;27;20409;-70
2023/03/11 12:49:42;;;;;;;1.83;1.37;;;17.40;30.30;;;;;;5153274;27;20403;-70
2023/03/11 12:52:12;;;;;;;4.50;1.80;;;17.70;31.00;;;;;;5153616;27;20484;-66
2023/03/11 12:54:39;;;;;;;2.50;2.00;;;18.00;31.00;;;;;;5142844;27;20453;-66
2023/03/11 12:57:17;;;;;;;2.80;1.20;;;18.30;30.80;;;;;;5114595;28;20403;-66
2023/03/11 13:00:05;;;;;;;3.03;1.30;;;18.60;30.60;;;;;;5112553;28;20403;-66
2023/03/11 13:03:20;;;;;;;4.33;1.40;;;19.20;30.20;;;;;;5112009;28;20439;-66